Terminal Aerodrome Forecast
Issued by NWS

Home | Current Version | Previous Version | Text Only | Print | Product List | Glossary On
Versions: 1 2 3 4 5 6 7 8 9 10 11 12 13 14 15 16 17 18 19 20 21 22 23 24
324
FTUS42 KJAX 201158 CCA
TAFVQQ
TAF COR
KVQQ 201158Z 2012/2112 00000KT P6SM SKC
     FM201500 09007KT P6SM SKC
     FM210300 VRB03KT P6SM SCT250
     FM210900 VRB03KT 4SM BR BKN250=

USA.gov is the U.S. government's official web portal to all federal, state and local government web resources and services.